North Sea — D5LG9 — position and weather

sailwx.info

Track history (hours):
 
Tides and Currents Weather Stations Pressure Air Temp Water Temp Dewpoint Dewpoint Depression Visibility Wind Speed Wind Dir Waves Ship Positions

North Sea

Last reported at 2018-Oct-13 20:59 UTC. Time now 2018-Oct-23 12:19 UTC.
Position N 43°12' E 005°01'.
Warning: this ship's position is 9 days out of date.

Length 229 m; draft 8.3 m.

Type: Tanker. MMSI: 636017501.

Date/timePositionNaut miles runAvg speedWind from/ knotsBaromVisibWave heightAir tempDewpointWater temp
2018-Oct-13 20:59N 43°12' E 005°01'611.6
2018-Oct-13 20:30N 43°17' E 004°59'510.4
2018-Oct-13 20:03N 43°22' E 004°58'0 6.2
2018-Oct-13 20:00N 43°22' E 004°57'3 5.7
2018-Oct-13 19:30N 43°24' E 004°54'1 1.7
2018-Oct-13 19:03N 43°24' E 004°53'0 0.0
2018-Oct-13 19:00N 43°24' E 004°53'0 0.0
2018-Oct-13 16:38N 43°24' E 004°53'0 0.0
2018-Oct-13 15:23N 43°24' E 004°53'0 0.0
2018-Oct-13 14:59N 43°24' E 004°53'0 0.0
2018-Oct-13 13:14N 43°24' E 004°53'0 0.0
2018-Oct-13 12:59N 43°24' E 004°53'0 0.0
2018-Oct-13 12:20N 43°24' E 004°53'0 0.0
2018-Oct-13 11:56N 43°24' E 004°53'0 0.0
2018-Oct-13 11:29N 43°24' E 004°53'0 0.0
2018-Oct-13 10:59N 43°24' E 004°53'0 0.0
2018-Oct-13 10:29N 43°24' E 004°53'0 0.0
2018-Oct-13 09:59N 43°24' E 004°53'0 0.0
2018-Oct-13 08:43N 43°24' E 004°53'0 0.0
2018-Oct-13 08:22N 43°24' E 004°53'0 0.0
2018-Oct-13 07:40N 43°24' E 004°53'0 0.0
2018-Oct-13 07:16N 43°24' E 004°53'0 0.0
2018-Oct-12 16:40N 43°24' E 004°53'0 0.0
2018-Oct-12 16:28N 43°24' E 004°53'1 2.0
2018-Oct-12 16:01N 43°24' E 004°54'0 5.2
2018-Oct-12 16:00N 43°24' E 004°55'3 5.1
2018-Oct-12 15:30N 43°22' E 004°57'0 0.6
2018-Oct-12 15:03N 43°22' E 004°56'0 0.1
2018-Oct-12 15:00N 43°22' E 004°56'0 0.2
2018-Oct-12 14:30N 43°22' E 004°56'0 0.0
2018-Oct-12 14:00N 43°22' E 004°56'0 0.0
2018-Oct-12 13:30N 43°22' E 004°56'0 0.0
2018-Oct-12 13:03N 43°22' E 004°56'0 0.1
2018-Oct-12 13:00N 43°22' E 004°56'0 0.0
2018-Oct-12 12:30N 43°22' E 004°56'0 0.0
2018-Oct-12 12:00N 43°22' E 004°56'0 0.0
2018-Oct-12 11:30N 43°22' E 004°56'0 0.0
2018-Oct-12 11:03N 43°22' E 004°56'0 0.0
2018-Oct-12 11:00N 43°22' E 004°56'0 0.0
2018-Oct-12 10:30N 43°22' E 004°56'0 0.0
2018-Oct-12 10:03N 43°22' E 004°56'0 0.0
2018-Oct-12 09:57N 43°22' E 004°56'0 0.0
2018-Oct-12 09:30N 43°22' E 004°56'0 0.0
2018-Oct-12 09:03N 43°22' E 004°56'0 0.1
2018-Oct-12 09:00N 43°22' E 004°56'0 0.0
2018-Oct-12 08:27N 43°22' E 004°56'0 0.0
2018-Oct-12 08:03N 43°22' E 004°56'0 0.1
2018-Oct-12 08:00N 43°22' E 004°56'0 0.0
2018-Oct-12 07:30N 43°22' E 004°56'0 0.0
2018-Oct-12 07:03N 43°22' E 004°56'0 0.0
2018-Oct-12 07:00N 43°22' E 004°56'0 0.0
2018-Oct-12 06:30N 43°22' E 004°56'0 0.1
2018-Oct-12 06:03N 43°22' E 004°56'0 0.0
2018-Oct-12 06:00N 43°22' E 004°56'0 0.0
2018-Oct-12 05:30N 43°22' E 004°56'0 0.0
2018-Oct-12 05:03N 43°22' E 004°56'0 0.0
2018-Oct-12 05:00N 43°22' E 004°56'0 0.0
2018-Oct-12 04:27N 43°22' E 004°56'0 0.0
2018-Oct-12 04:03N 43°22' E 004°56'0 0.0
2018-Oct-12 04:00N 43°22' E 004°56'0 0.0
2018-Oct-12 03:27N 43°22' E 004°56'0 0.0
2018-Oct-12 03:00N 43°22' E 004°56'0 0.0
2018-Oct-12 02:30N 43°22' E 004°56'0 0.0
2018-Oct-12 02:03N 43°22' E 004°56'0 0.1
2018-Oct-12 01:57N 43°22' E 004°56'0 0.0
2018-Oct-12 01:24N 43°22' E 004°56'0 0.1
2018-Oct-12 01:03N 43°22' E 004°56'0 0.1
2018-Oct-12 01:00N 43°22' E 004°56'0 0.0
2018-Oct-12 00:30N 43°22' E 004°56'0 0.0
2018-Oct-12 00:03N 43°22' E 004°56'0 0.2
2018-Oct-12 00:00N 43°22' E 004°56'0 0.0
2018-Oct-11 23:30N 43°22' E 004°56'0 0.0
2018-Oct-11 23:03N 43°22' E 004°56'0 0.2
2018-Oct-11 22:57N 43°22' E 004°56'0 0.0
2018-Oct-11 22:30N 43°22' E 004°56'0 0.0
2018-Oct-11 22:03N 43°22' E 004°56'0 0.1
2018-Oct-11 22:00N 43°22' E 004°56'0 0.0
2018-Oct-11 21:30N 43°22' E 004°56'0 0.0
2018-Oct-11 21:03N 43°22' E 004°56'0 0.1
2018-Oct-11 21:00N 43°22' E 004°56'0 0.0
2018-Oct-11 20:30N 43°22' E 004°56'0 0.0
2018-Oct-11 20:00N 43°22' E 004°56'0 0.0
2018-Oct-11 19:30N 43°22' E 004°56'0 0.0
2018-Oct-11 19:03N 43°22' E 004°56'0 0.1
2018-Oct-11 19:00N 43°22' E 004°56'0 0.0
2018-Oct-11 18:27N 43°22' E 004°56'0 0.0
2018-Oct-11 18:03N 43°22' E 004°56'0 0.0
2018-Oct-11 18:00N 43°22' E 004°56'0 0.0
2018-Oct-11 17:30N 43°22' E 004°56'0 0.0
2018-Oct-11 17:03N 43°22' E 004°56'0 0.0
2018-Oct-11 17:00N 43°22' E 004°56'0 0.0
2018-Oct-11 16:30N 43°22' E 004°56'0 0.0
2018-Oct-11 16:03N 43°22' E 004°56'0 0.1
2018-Oct-11 16:00N 43°22' E 004°56'0 0.0
2018-Oct-11 15:30N 43°22' E 004°56'0 0.0
2018-Oct-11 15:03N 43°22' E 004°56'0 0.2
2018-Oct-11 15:00N 43°22' E 004°56'0 0.0
2018-Oct-11 14:30N 43°22' E 004°56'0 0.0
2018-Oct-11 14:00N 43°22' E 004°56'0 0.0
2018-Oct-11 13:30N 43°22' E 004°56'0 0.0
2018-Oct-11 13:03N 43°22' E 004°56'0 0.0
2018-Oct-11 12:57N 43°22' E 004°56'0 0.0
2018-Oct-11 12:30N 43°22' E 004°56'0 0.0
2018-Oct-11 12:03N 43°22' E 004°56'0 0.2
2018-Oct-11 12:00N 43°22' E 004°56'0 0.0
2018-Oct-11 11:30N 43°22' E 004°56'0 0.0
2018-Oct-11 11:03N 43°22' E 004°56'0 0.1
2018-Oct-11 10:57N 43°22' E 004°56'0 0.0
2018-Oct-11 10:30N 43°22' E 004°56'0 0.0
2018-Oct-11 10:03N 43°22' E 004°56'0 0.3
2018-Oct-11 10:00N 43°22' E 004°56'0 0.0
2018-Oct-11 09:30N 43°22' E 004°56'0 0.0
2018-Oct-11 09:03N 43°22' E 004°56'0 0.0
2018-Oct-11 09:00N 43°22' E 004°56'0 0.0
2018-Oct-11 08:30N 43°22' E 004°56'0 0.0
2018-Oct-11 08:03N 43°22' E 004°56'0 0.1
2018-Oct-11 08:00N 43°22' E 004°56'0 0.0
2018-Oct-11 07:30N 43°22' E 004°56'0 0.0
2018-Oct-11 07:03N 43°22' E 004°56'0 0.1
2018-Oct-11 07:00N 43°22' E 004°56'0 0.0
2018-Oct-11 06:27N 43°22' E 004°56'0 0.0
2018-Oct-11 06:03N 43°22' E 004°56'0 0.1
2018-Oct-11 05:57N 43°22' E 004°56'0 0.0
2018-Oct-11 05:30N 43°22' E 004°56'0 0.0
2018-Oct-11 05:03N 43°22' E 004°56'0 0.1
2018-Oct-11 05:00N 43°22' E 004°56'0 0.0
2018-Oct-11 04:27N 43°22' E 004°56'0 0.0
2018-Oct-11 04:03N 43°22' E 004°56'0 0.1
2018-Oct-11 03:57N 43°22' E 004°56'0 0.0
2018-Oct-11 03:30N 43°22' E 004°56'0 0.0
2018-Oct-11 03:03N 43°22' E 004°56'0 0.2
2018-Oct-11 03:00N 43°22' E 004°56'0 0.0
2018-Oct-11 02:30N 43°22' E 004°56'0 0.1
2018-Oct-11 02:03N 43°22' E 004°56'0 0.4
2018-Oct-11 02:00N 43°22' E 004°56'0 0.0
2018-Oct-11 01:30N 43°22' E 004°56'0 0.0
2018-Oct-11 01:03N 43°22' E 004°56'0 0.2
2018-Oct-11 01:00N 43°22' E 004°56'0 0.0
2018-Oct-11 00:30N 43°22' E 004°56'0 0.0
2018-Oct-11 00:03N 43°22' E 004°56'0 0.3
2018-Oct-11 00:00N 43°22' E 004°56'0 0.0
2018-Oct-10 23:27N 43°22' E 004°56'0 0.0
2018-Oct-10 23:03N 43°22' E 004°56'0 0.3
2018-Oct-10 23:00N 43°22' E 004°56'0 0.0
2018-Oct-10 22:30N 43°22' E 004°56'0 0.1
2018-Oct-10 22:03N 43°22' E 004°56'0 0.3
2018-Oct-10 22:00N 43°22' E 004°56'0 0.1
2018-Oct-10 21:30N 43°22' E 004°56'0 0.0
2018-Oct-10 21:03N 43°22' E 004°56'0 0.3
2018-Oct-10 21:00N 43°22' E 004°56'0 0.0
2018-Oct-10 20:30N 43°22' E 004°56'0 0.0
2018-Oct-10 20:03N 43°22' E 004°56'0 0.3
2018-Oct-10 20:00N 43°22' E 004°56'0 0.0
2018-Oct-10 19:30N 43°22' E 004°56'0 0.1
2018-Oct-10 19:03N 43°22' E 004°56'0 0.2
2018-Oct-10 19:00N 43°22' E 004°56'0 0.0
2018-Oct-10 18:30N 43°22' E 004°56'0 0.0
2018-Oct-10 18:03N 43°22' E 004°56'0 0.3
2018-Oct-10 18:00N 43°22' E 004°56'0 0.0
2018-Oct-10 17:30N 43°22' E 004°56'0 0.0
2018-Oct-10 17:03N 43°22' E 004°56'0 0.1
2018-Oct-10 16:57N 43°22' E 004°56'0 0.1
2018-Oct-10 16:27N 43°22' E 004°56'0 0.1
2018-Oct-10 16:03N 43°22' E 004°56'0 0.2
2018-Oct-10 16:00N 43°22' E 004°56'0 0.1
2018-Oct-10 15:30N 43°22' E 004°56'0 0.0
2018-Oct-10 15:03N 43°22' E 004°56'0 0.0
2018-Oct-10 15:00N 43°22' E 004°56'0 0.0
2018-Oct-10 14:27N 43°22' E 004°56'0 0.0
2018-Oct-10 13:57N 43°22' E 004°56'0 0.0
2018-Oct-10 13:30N 43°22' E 004°56'0 0.0
2018-Oct-10 13:03N 43°22' E 004°56'0 0.3
2018-Oct-10 13:00N 43°22' E 004°56'0 0.0
2018-Oct-10 12:30N 43°22' E 004°56'0 0.0
2018-Oct-10 12:03N 43°22' E 004°56'0 0.1
2018-Oct-10 12:00N 43°22' E 004°56'0 0.1
2018-Oct-10 11:30N 43°22' E 004°56'0 0.0
2018-Oct-10 11:03N 43°22' E 004°56'0 0.1
2018-Oct-10 11:00N 43°22' E 004°56'0 0.1
2018-Oct-10 10:30N 43°22' E 004°56'0 0.1
2018-Oct-10 10:03N 43°22' E 004°56'0 0.4
2018-Oct-10 09:57N 43°22' E 004°56'0 0.1
2018-Oct-10 09:30N 43°22' E 004°56'0 0.0
2018-Oct-10 09:03N 43°22' E 004°56'0 0.4
2018-Oct-10 09:00N 43°22' E 004°56'0 0.0
2018-Oct-10 08:27N 43°22' E 004°56'0 0.0
2018-Oct-10 08:03N 43°22' E 004°56'0 0.2
2018-Oct-10 08:00N 43°22' E 004°56'0 0.1
2018-Oct-10 07:30N 43°22' E 004°56'0 0.0
2018-Oct-10 06:54N 43°22' E 004°56'0 0.0
2018-Oct-10 06:30N 43°22' E 004°56'0 0.2
2018-Oct-10 06:03N 43°22' E 004°56'0 0.1
2018-Oct-10 06:00N 43°22' E 004°56'0 0.0
2018-Oct-10 05:27N 43°22' E 004°56'0 0.0
2018-Oct-10 05:03N 43°22' E 004°56'0 0.1
2018-Oct-10 05:01N 43°22' E 004°56'0 0.0
2018-Oct-10 04:30N 43°22' E 004°56'0 0.0
2018-Oct-10 04:03N 43°22' E 004°56'0 0.1
2018-Oct-10 04:00N 43°22' E 004°56'0 0.0
2018-Oct-10 03:30N 43°22' E 004°56'0 0.0
2018-Oct-10 03:03N 43°22' E 004°56'0 0.2
2018-Oct-10 03:00N 43°22' E 004°56'0 0.0
2018-Oct-10 02:30N 43°22' E 004°56'0 0.0
2018-Oct-10 02:03N 43°22' E 004°56'0 0.1
2018-Oct-10 02:00N 43°22' E 004°56'0 0.0
2018-Oct-10 01:30N 43°22' E 004°56'0 0.0
2018-Oct-10 01:03N 43°22' E 004°56'0 0.1
2018-Oct-10 01:00N 43°22' E 004°56'0 0.0
2018-Oct-10 00:28N 43°22' E 004°56'0 0.0
2018-Oct-10 00:01N 43°22' E 004°56'0 0.0
2018-Oct-09 23:58N 43°22' E 004°56'0 0.0
2018-Oct-09 23:28N 43°22' E 004°56'0 0.0
2018-Oct-09 23:01N 43°22' E 004°56'0 0.1
2018-Oct-09 22:58N 43°22' E 004°56'0 0.0
2018-Oct-09 22:25N 43°22' E 004°56'0 0.0
2018-Oct-09 22:01N 43°22' E 004°56'0 0.1
2018-Oct-09 21:58N 43°22' E 004°56'0 0.0
2018-Oct-09 21:25N 43°22' E 004°56'0 0.0
2018-Oct-09 21:01N 43°22' E 004°56'0 0.0
2018-Oct-09 20:58N 43°22' E 004°56'0 0.0
2018-Oct-09 20:28N 43°22' E 004°56'0 0.0
2018-Oct-09 20:01N 43°22' E 004°56'0 0.0
2018-Oct-09 19:55N 43°22' E 004°56'0 0.0
2018-Oct-09 19:28N 43°22' E 004°56'0 0.0
2018-Oct-09 19:01N 43°22' E 004°56'0 0.1
2018-Oct-09 18:58N 43°22' E 004°56'0 0.0
2018-Oct-09 18:28N 43°22' E 004°56'0 0.1
2018-Oct-09 18:01N 43°22' E 004°56'0 0.1
2018-Oct-09 17:58N 43°22' E 004°56'0 0.0
2018-Oct-09 17:25N 43°22' E 004°56'0 0.0
2018-Oct-09 17:01N 43°22' E 004°56'0 0.1
2018-Oct-09 16:55N 43°22' E 004°56'0 0.0
2018-Oct-09 16:28N 43°22' E 004°56'0 0.0
2018-Oct-09 16:01N 43°22' E 004°56'0 0.1
2018-Oct-09 15:58N 43°22' E 004°56'0 0.0
2018-Oct-09 15:28N 43°22' E 004°56'0 0.0
2018-Oct-09 15:01N 43°22' E 004°56'0 0.1
2018-Oct-09 14:58N 43°22' E 004°56'0 0.0
2018-Oct-09 13:55N 43°22' E 004°56'0 0.0
2018-Oct-09 13:25N 43°22' E 004°56'0 0.0
2018-Oct-09 13:01N 43°22' E 004°56'0 0.0
2018-Oct-09 12:58N 43°22' E 004°56'0 0.0
2018-Oct-09 12:28N 43°22' E 004°56'0 0.0
2018-Oct-09 12:01N 43°22' E 004°56'0 0.1
2018-Oct-09 11:58N 43°22' E 004°56'0 0.0
2018-Oct-09 11:28N 43°22' E 004°56'0 0.1
2018-Oct-09 11:01N 43°22' E 004°56'0 0.0
2018-Oct-09 10:58N 43°22' E 004°56'0 0.0
2018-Oct-09 10:25N 43°22' E 004°56'0 0.0
2018-Oct-09 10:01N 43°22' E 004°56'0 0.0
2018-Oct-09 09:58N 43°22' E 004°56'0 0.0
2018-Oct-09 09:25N 43°22' E 004°56'0 0.0
2018-Oct-09 08:58N 43°22' E 004°56'0 0.0
2018-Oct-09 08:28N 43°22' E 004°56'0 0.0
2018-Oct-09 08:01N 43°22' E 004°56'0 0.1
2018-Oct-09 07:58N 43°22' E 004°56'0 0.0
2018-Oct-09 07:28N 43°22' E 004°56'0 0.0
2018-Oct-09 07:01N 43°22' E 004°56'0 0.1
2018-Oct-09 06:58N 43°22' E 004°56'0 0.0
2018-Oct-09 06:19N 43°22' E 004°56'0 0.0
2018-Oct-09 06:01N 43°22' E 004°56'0 0.0
2018-Oct-09 05:58N 43°22' E 004°56'0 0.0
2018-Oct-09 05:28N 43°22' E 004°56'0 0.0
2018-Oct-09 05:01N 43°22' E 004°56'0 0.1
2018-Oct-09 04:55N 43°22' E 004°56'0 0.1
2018-Oct-09 04:28N 43°22' E 004°56'0 0.0
2018-Oct-09 04:01N 43°22' E 004°56'0 0.1
2018-Oct-09 03:58N 43°22' E 004°56'0 0.1
2018-Oct-09 03:28N 43°22' E 004°56'0 0.1
2018-Oct-09 03:01N 43°22' E 004°56'0 0.1
2018-Oct-09 02:55N 43°22' E 004°56'0 0.1
2018-Oct-09 02:28N 43°22' E 004°56'0 0.0
2018-Oct-09 02:01N 43°22' E 004°56'0 0.0
2018-Oct-09 01:58N 43°22' E 004°56'0 0.0
2018-Oct-09 01:25N 43°22' E 004°56'0 0.0
2018-Oct-09 01:01N 43°22' E 004°56'0 0.1
2018-Oct-09 00:55N 43°22' E 004°56'0 0.0
2018-Oct-09 00:25N 43°22' E 004°56'0 0.0
2018-Oct-09 00:01N 43°22' E 004°56'0 0.0
2018-Oct-08 23:58N 43°22' E 004°56'0 0.0
2018-Oct-08 23:28N 43°22' E 004°56'0 0.0
2018-Oct-08 23:01N 43°22' E 004°56'0 0.1
2018-Oct-08 22:58N 43°22' E 004°56'0 0.0
2018-Oct-08 22:25N 43°22' E 004°56'0 0.0
2018-Oct-08 22:01N 43°22' E 004°56'0 0.0
2018-Oct-08 21:58N 43°22' E 004°56'0 0.0
2018-Oct-08 21:28N 43°22' E 004°56'0 0.0
2018-Oct-08 21:01N 43°22' E 004°56'0 0.1
2018-Oct-08 20:58N 43°22' E 004°56'0 0.0
2018-Oct-08 20:28N 43°22' E 004°56'0 0.0
2018-Oct-08 20:01N 43°22' E 004°56'0 0.1
2018-Oct-08 19:58N 43°22' E 004°56'0 0.0
2018-Oct-08 19:28N 43°22' E 004°56'0 0.0
2018-Oct-08 18:58N 43°22' E 004°56'0 0.0
2018-Oct-08 18:28N 43°22' E 004°56'0 0.0
2018-Oct-08 17:58N 43°22' E 004°56'0 0.0
2018-Oct-08 17:28N 43°22' E 004°56'0 0.0
2018-Oct-08 16:58N 43°22' E 004°56'0 0.0
2018-Oct-08 16:28N 43°22' E 004°56'0 0.1
2018-Oct-08 16:01N 43°22' E 004°56'0 0.2
2018-Oct-08 15:58N 43°22' E 004°56'0 0.1
2018-Oct-08 15:28N 43°22' E 004°56'0 0.0
2018-Oct-08 14:58N 43°22' E 004°56'0 0.1
2018-Oct-08 14:28N 43°22' E 004°56'0 0.1
2018-Oct-08 13:58N 43°22' E 004°56'0 0.0
2018-Oct-08 13:28N 43°22' E 004°56'0 0.0
2018-Oct-08 13:01N 43°22' E 004°56'0 0.1
2018-Oct-08 12:58N 43°22' E 004°56'0 0.1
2018-Oct-08 12:28N 43°22' E 004°56'0 0.0
2018-Oct-08 12:01N 43°22' E 004°56'0 0.0
2018-Oct-08 11:58N 43°22' E 004°56'0 0.0
2018-Oct-08 11:28N 43°22' E 004°56'0 0.0
2018-Oct-08 11:01N 43°22' E 004°56'0 0.0
2018-Oct-08 10:58N 43°22' E 004°56'0 0.1
2018-Oct-08 10:28N 43°22' E 004°56'0 0.1
2018-Oct-08 10:01N 43°22' E 004°56'0 0.1
2018-Oct-08 09:58N 43°22' E 004°56'0 0.0
2018-Oct-08 09:28N 43°22' E 004°56'0 0.0
2018-Oct-08 09:01N 43°22' E 004°56'0 0.0
2018-Oct-08 08:49N 43°22' E 004°56'0 0.0
2018-Oct-08 08:25N 43°22' E 004°56'0 0.0
2018-Oct-08 08:01N 43°22' E 004°56'0 0.1
2018-Oct-08 07:58N 43°22' E 004°56'0 0.0
2018-Oct-08 07:28N 43°22' E 004°56'0 0.1
2018-Oct-08 07:01N 43°22' E 004°56'0 0.1
2018-Oct-08 06:58N 43°22' E 004°56'0 0.0
2018-Oct-08 06:28N 43°22' E 004°56'0 0.0
2018-Oct-08 05:58N 43°22' E 004°56'0 0.0
2018-Oct-08 05:28N 43°22' E 004°56'0 0.1
2018-Oct-08 05:01N 43°22' E 004°56'0 0.1
2018-Oct-08 04:55N 43°22' E 004°56'0 0.0
2018-Oct-08 04:28N 43°22' E 004°56'0 0.1
2018-Oct-08 04:01N 43°22' E 004°56'0 0.1
2018-Oct-08 03:58N 43°22' E 004°56'0 0.1
2018-Oct-08 03:28N 43°22' E 004°56'0 0.0
2018-Oct-08 03:01N 43°21' E 004°56'0 0.1
2018-Oct-08 02:58N 43°21' E 004°56'0 0.0
2018-Oct-08 02:28N 43°21' E 004°56'0 0.0
2018-Oct-08 02:01N 43°21' E 004°56'0 0.0
2018-Oct-08 01:58N 43°21' E 004°56'0 0.0
2018-Oct-08 01:28N 43°21' E 004°56'0 0.0
2018-Oct-08 01:01N 43°21' E 004°56'0 0.1
2018-Oct-08 00:58N 43°21' E 004°56'0 0.0
2018-Oct-08 00:28N 43°21' E 004°56'0 0.0
2018-Oct-08 00:01N 43°21' E 004°56'0 0.0
2018-Oct-07 23:58N 43°21' E 004°56'0 0.0
2018-Oct-07 23:25N 43°21' E 004°56'0 0.0
2018-Oct-07 22:58N 43°21' E 004°56'0 0.0
2018-Oct-07 22:25N 43°21' E 004°56'0 0.1
2018-Oct-07 22:01N 43°21' E 004°56'0 0.1
2018-Oct-07 21:55N 43°21' E 004°56'0 0.0
2018-Oct-07 21:25N 43°21' E 004°56'0 0.1
2018-Oct-07 20:55N 43°21' E 004°56'0 0.1
2018-Oct-07 20:25N 43°22' E 004°57'0 0.1
2018-Oct-07 20:01N 43°22' E 004°57'0 0.0
2018-Oct-07 19:58N 43°22' E 004°57'0 0.1
2018-Oct-07 19:28N 43°22' E 004°57'0 0.0
2018-Oct-07 19:01N 43°22' E 004°57'0 0.0
2018-Oct-07 18:58N 43°22' E 004°57'0 0.0
2018-Oct-07 18:28N 43°22' E 004°57'0 0.1
2018-Oct-07 18:01N 43°22' E 004°57'0 0.0
2018-Oct-07 17:58N 43°22' E 004°57'0 0.0
2018-Oct-07 17:28N 43°22' E 004°57'0 0.0
2018-Oct-07 17:01N 43°22' E 004°57'0 0.1
2018-Oct-07 16:58N 43°22' E 004°57'0 0.1
2018-Oct-07 16:28N 43°22' E 004°57'0 0.1
2018-Oct-07 16:01N 43°22' E 004°57'0 0.0
2018-Oct-07 15:55N 43°22' E 004°57'0 0.1
2018-Oct-07 15:25N 43°22' E 004°57'0 0.0
2018-Oct-07 15:01N 43°22' E 004°57'0 0.0
2018-Oct-07 14:58N 43°22' E 004°57'0 0.0
2018-Oct-07 14:28N 43°22' E 004°57'0 0.0
2018-Oct-07 13:58N 43°22' E 004°57'0 0.0
2018-Oct-07 13:28N 43°22' E 004°57'0 0.0
2018-Oct-07 13:01N 43°22' E 004°57'0 0.1
2018-Oct-07 12:58N 43°22' E 004°57'0 0.0
2018-Oct-07 12:28N 43°22' E 004°57'0 0.0
2018-Oct-07 12:01N 43°22' E 004°57'0 0.1
2018-Oct-07 11:58N 43°22' E 004°57'0 0.0
2018-Oct-07 11:28N 43°22' E 004°57'0 0.0
2018-Oct-07 11:01N 43°22' E 004°57'0 0.1
2018-Oct-07 10:58N 43°22' E 004°57'0 0.0
2018-Oct-07 10:22N 43°22' E 004°57'0 0.0
2018-Oct-07 10:01N 43°22' E 004°57'0 0.1
2018-Oct-07 09:58N 43°22' E 004°57'0 0.0
2018-Oct-07 09:25N 43°22' E 004°57'0 0.1
2018-Oct-07 09:01N 43°22' E 004°57'0 0.1
2018-Oct-07 08:55N 43°22' E 004°57'0 0.1
2018-Oct-07 08:30N 43°22' E 004°57'0 0.1
2018-Oct-07 08:03N 43°22' E 004°57'0 0.0
2018-Oct-07 08:00N 43°22' E 004°57'0 0.0
2018-Oct-07 07:30N 43°22' E 004°57'3 1.0
2018-Oct-07 04:21N 43°19' E 004°59'2 4.6
2018-Oct-07 03:59N 43°18' E 004°60'2 4.1
2018-Oct-07 03:30N 43°16' E 005°01'2 4.4
2018-Oct-07 03:01N 43°14' E 005°02'0 6.8
2018-Oct-07 03:00N 43°14' E 005°02'510.5
2018-Oct-07 02:30N 43°09' E 005°04'510.9
2018-Oct-07 02:01N 43°04' E 005°06'  
Track history (hours):
 
Tides and Currents Weather Stations Pressure Air Temp Water Temp Dewpoint Dewpoint Depression Visibility Wind Speed Wind Dir Waves Ship Positions

North Sea

Last reported at 2018-Oct-13 20:59 UTC. Time now 2018-Oct-23 12:19 UTC.
Position N 43°12' E 005°01'.
Warning: this ship's position is 9 days out of date.

Length 229 m; draft 8.3 m.

Type: Tanker. MMSI: 636017501.

Date/timePositionNaut miles runAvg speedWind from/ knotsBaromVisibWave heightAir tempDewpointWater temp
2018-Oct-13 20:59N 43°12' E 005°01'611.6
2018-Oct-13 20:30N 43°17' E 004°59'510.4
2018-Oct-13 20:03N 43°22' E 004°58'0 6.2
2018-Oct-13 20:00N 43°22' E 004°57'3 5.7
2018-Oct-13 19:30N 43°24' E 004°54'1 1.7
2018-Oct-13 19:03N 43°24' E 004°53'0 0.0
2018-Oct-13 19:00N 43°24' E 004°53'0 0.0
2018-Oct-13 16:38N 43°24' E 004°53'0 0.0
2018-Oct-13 15:23N 43°24' E 004°53'0 0.0
2018-Oct-13 14:59N 43°24' E 004°53'0 0.0
2018-Oct-13 13:14N 43°24' E 004°53'0 0.0
2018-Oct-13 12:59N 43°24' E 004°53'0 0.0
2018-Oct-13 12:20N 43°24' E 004°53'0 0.0
2018-Oct-13 11:56N 43°24' E 004°53'0 0.0
2018-Oct-13 11:29N 43°24' E 004°53'0 0.0
2018-Oct-13 10:59N 43°24' E 004°53'0 0.0
2018-Oct-13 10:29N 43°24' E 004°53'0 0.0
2018-Oct-13 09:59N 43°24' E 004°53'0 0.0
2018-Oct-13 08:43N 43°24' E 004°53'0 0.0
2018-Oct-13 08:22N 43°24' E 004°53'0 0.0
2018-Oct-13 07:40N 43°24' E 004°53'0 0.0
2018-Oct-13 07:16N 43°24' E 004°53'0 0.0
2018-Oct-12 16:40N 43°24' E 004°53'0 0.0
2018-Oct-12 16:28N 43°24' E 004°53'1 2.0
2018-Oct-12 16:01N 43°24' E 004°54'0 5.2
2018-Oct-12 16:00N 43°24' E 004°55'3 5.1
2018-Oct-12 15:30N 43°22' E 004°57'0 0.6
2018-Oct-12 15:03N 43°22' E 004°56'0 0.1
2018-Oct-12 15:00N 43°22' E 004°56'0 0.2
2018-Oct-12 14:30N 43°22' E 004°56'0 0.0
2018-Oct-12 14:00N 43°22' E 004°56'0 0.0
2018-Oct-12 13:30N 43°22' E 004°56'0 0.0
2018-Oct-12 13:03N 43°22' E 004°56'0 0.1
2018-Oct-12 13:00N 43°22' E 004°56'0 0.0
2018-Oct-12 12:30N 43°22' E 004°56'0 0.0
2018-Oct-12 12:00N 43°22' E 004°56'0 0.0
2018-Oct-12 11:30N 43°22' E 004°56'0 0.0
2018-Oct-12 11:03N 43°22' E 004°56'0 0.0
2018-Oct-12 11:00N 43°22' E 004°56'0 0.0
2018-Oct-12 10:30N 43°22' E 004°56'0 0.0
2018-Oct-12 10:03N 43°22' E 004°56'0 0.0
2018-Oct-12 09:57N 43°22' E 004°56'0 0.0
2018-Oct-12 09:30N 43°22' E 004°56'0 0.0
2018-Oct-12 09:03N 43°22' E 004°56'0 0.1
2018-Oct-12 09:00N 43°22' E 004°56'0 0.0
2018-Oct-12 08:27N 43°22' E 004°56'0 0.0
2018-Oct-12 08:03N 43°22' E 004°56'0 0.1
2018-Oct-12 08:00N 43°22' E 004°56'0 0.0
2018-Oct-12 07:30N 43°22' E 004°56'0 0.0
2018-Oct-12 07:03N 43°22' E 004°56'0 0.0
2018-Oct-12 07:00N 43°22' E 004°56'0 0.0
2018-Oct-12 06:30N 43°22' E 004°56'0 0.1
2018-Oct-12 06:03N 43°22' E 004°56'0 0.0
2018-Oct-12 06:00N 43°22' E 004°56'0 0.0
2018-Oct-12 05:30N 43°22' E 004°56'0 0.0
2018-Oct-12 05:03N 43°22' E 004°56'0 0.0
2018-Oct-12 05:00N 43°22' E 004°56'0 0.0
2018-Oct-12 04:27N 43°22' E 004°56'0 0.0
2018-Oct-12 04:03N 43°22' E 004°56'0 0.0
2018-Oct-12 04:00N 43°22' E 004°56'0 0.0
2018-Oct-12 03:27N 43°22' E 004°56'0 0.0
2018-Oct-12 03:00N 43°22' E 004°56'0 0.0
2018-Oct-12 02:30N 43°22' E 004°56'0 0.0
2018-Oct-12 02:03N 43°22' E 004°56'0 0.1
2018-Oct-12 01:57N 43°22' E 004°56'0 0.0
2018-Oct-12 01:24N 43°22' E 004°56'0 0.1
2018-Oct-12 01:03N 43°22' E 004°56'0 0.1
2018-Oct-12 01:00N 43°22' E 004°56'0 0.0
2018-Oct-12 00:30N 43°22' E 004°56'0 0.0
2018-Oct-12 00:03N 43°22' E 004°56'0 0.2
2018-Oct-12 00:00N 43°22' E 004°56'0 0.0
2018-Oct-11 23:30N 43°22' E 004°56'0 0.0
2018-Oct-11 23:03N 43°22' E 004°56'0 0.2
2018-Oct-11 22:57N 43°22' E 004°56'0 0.0
2018-Oct-11 22:30N 43°22' E 004°56'0 0.0
2018-Oct-11 22:03N 43°22' E 004°56'0 0.1
2018-Oct-11 22:00N 43°22' E 004°56'0 0.0
2018-Oct-11 21:30N 43°22' E 004°56'0 0.0
2018-Oct-11 21:03N 43°22' E 004°56'0 0.1
2018-Oct-11 21:00N 43°22' E 004°56'0 0.0
2018-Oct-11 20:30N 43°22' E 004°56'0 0.0
2018-Oct-11 20:00N 43°22' E 004°56'0 0.0
2018-Oct-11 19:30N 43°22' E 004°56'0 0.0
2018-Oct-11 19:03N 43°22' E 004°56'0 0.1
2018-Oct-11 19:00N 43°22' E 004°56'0 0.0
2018-Oct-11 18:27N 43°22' E 004°56'0 0.0
2018-Oct-11 18:03N 43°22' E 004°56'0 0.0
2018-Oct-11 18:00N 43°22' E 004°56'0 0.0
2018-Oct-11 17:30N 43°22' E 004°56'0 0.0
2018-Oct-11 17:03N 43°22' E 004°56'0 0.0
2018-Oct-11 17:00N 43°22' E 004°56'0 0.0
2018-Oct-11 16:30N 43°22' E 004°56'0 0.0
2018-Oct-11 16:03N 43°22' E 004°56'0 0.1
2018-Oct-11 16:00N 43°22' E 004°56'0 0.0
2018-Oct-11 15:30N 43°22' E 004°56'0 0.0
2018-Oct-11 15:03N 43°22' E 004°56'0 0.2
2018-Oct-11 15:00N 43°22' E 004°56'0 0.0
2018-Oct-11 14:30N 43°22' E 004°56'0 0.0
2018-Oct-11 14:00N 43°22' E 004°56'0 0.0
2018-Oct-11 13:30N 43°22' E 004°56'0 0.0
2018-Oct-11 13:03N 43°22' E 004°56'0 0.0
2018-Oct-11 12:57N 43°22' E 004°56'0 0.0
2018-Oct-11 12:30N 43°22' E 004°56'0 0.0
2018-Oct-11 12:03N 43°22' E 004°56'0 0.2
2018-Oct-11 12:00N 43°22' E 004°56'0 0.0
2018-Oct-11 11:30N 43°22' E 004°56'0 0.0
2018-Oct-11 11:03N 43°22' E 004°56'0 0.1
2018-Oct-11 10:57N 43°22' E 004°56'0 0.0
2018-Oct-11 10:30N 43°22' E 004°56'0 0.0
2018-Oct-11 10:03N 43°22' E 004°56'0 0.3
2018-Oct-11 10:00N 43°22' E 004°56'0 0.0
2018-Oct-11 09:30N 43°22' E 004°56'0 0.0
2018-Oct-11 09:03N 43°22' E 004°56'0 0.0
2018-Oct-11 09:00N 43°22' E 004°56'0 0.0
2018-Oct-11 08:30N 43°22' E 004°56'0 0.0
2018-Oct-11 08:03N 43°22' E 004°56'0 0.1
2018-Oct-11 08:00N 43°22' E 004°56'0 0.0
2018-Oct-11 07:30N 43°22' E 004°56'0 0.0
2018-Oct-11 07:03N 43°22' E 004°56'0 0.1
2018-Oct-11 07:00N 43°22' E 004°56'0 0.0
2018-Oct-11 06:27N 43°22' E 004°56'0 0.0
2018-Oct-11 06:03N 43°22' E 004°56'0 0.1
2018-Oct-11 05:57N 43°22' E 004°56'0 0.0
2018-Oct-11 05:30N 43°22' E 004°56'0 0.0
2018-Oct-11 05:03N 43°22' E 004°56'0 0.1
2018-Oct-11 05:00N 43°22' E 004°56'0 0.0
2018-Oct-11 04:27N 43°22' E 004°56'0 0.0
2018-Oct-11 04:03N 43°22' E 004°56'0 0.1
2018-Oct-11 03:57N 43°22' E 004°56'0 0.0
2018-Oct-11 03:30N 43°22' E 004°56'0 0.0
2018-Oct-11 03:03N 43°22' E 004°56'0 0.2
2018-Oct-11 03:00N 43°22' E 004°56'0 0.0
2018-Oct-11 02:30N 43°22' E 004°56'0 0.1
2018-Oct-11 02:03N 43°22' E 004°56'0 0.4
2018-Oct-11 02:00N 43°22' E 004°56'0 0.0
2018-Oct-11 01:30N 43°22' E 004°56'0 0.0
2018-Oct-11 01:03N 43°22' E 004°56'0 0.2
2018-Oct-11 01:00N 43°22' E 004°56'0 0.0
2018-Oct-11 00:30N 43°22' E 004°56'0 0.0
2018-Oct-11 00:03N 43°22' E 004°56'0 0.3
2018-Oct-11 00:00N 43°22' E 004°56'0 0.0
2018-Oct-10 23:27N 43°22' E 004°56'0 0.0
2018-Oct-10 23:03N 43°22' E 004°56'0 0.3
2018-Oct-10 23:00N 43°22' E 004°56'0 0.0
2018-Oct-10 22:30N 43°22' E 004°56'0 0.1
2018-Oct-10 22:03N 43°22' E 004°56'0 0.3
2018-Oct-10 22:00N 43°22' E 004°56'0 0.1
2018-Oct-10 21:30N 43°22' E 004°56'0 0.0
2018-Oct-10 21:03N 43°22' E 004°56'0 0.3
2018-Oct-10 21:00N 43°22' E 004°56'0 0.0
2018-Oct-10 20:30N 43°22' E 004°56'0 0.0
2018-Oct-10 20:03N 43°22' E 004°56'0 0.3
2018-Oct-10 20:00N 43°22' E 004°56'0 0.0
2018-Oct-10 19:30N 43°22' E 004°56'0 0.1
2018-Oct-10 19:03N 43°22' E 004°56'0 0.2
2018-Oct-10 19:00N 43°22' E 004°56'0 0.0
2018-Oct-10 18:30N 43°22' E 004°56'0 0.0
2018-Oct-10 18:03N 43°22' E 004°56'0 0.3
2018-Oct-10 18:00N 43°22' E 004°56'0 0.0
2018-Oct-10 17:30N 43°22' E 004°56'0 0.0
2018-Oct-10 17:03N 43°22' E 004°56'0 0.1
2018-Oct-10 16:57N 43°22' E 004°56'0 0.1
2018-Oct-10 16:27N 43°22' E 004°56'0 0.1
2018-Oct-10 16:03N 43°22' E 004°56'0 0.2
2018-Oct-10 16:00N 43°22' E 004°56'0 0.1
2018-Oct-10 15:30N 43°22' E 004°56'0 0.0
2018-Oct-10 15:03N 43°22' E 004°56'0 0.0
2018-Oct-10 15:00N 43°22' E 004°56'0 0.0
2018-Oct-10 14:27N 43°22' E 004°56'0 0.0
2018-Oct-10 13:57N 43°22' E 004°56'0 0.0
2018-Oct-10 13:30N 43°22' E 004°56'0 0.0
2018-Oct-10 13:03N 43°22' E 004°56'0 0.3
2018-Oct-10 13:00N 43°22' E 004°56'0 0.0
2018-Oct-10 12:30N 43°22' E 004°56'0 0.0
2018-Oct-10 12:03N 43°22' E 004°56'0 0.1
2018-Oct-10 12:00N 43°22' E 004°56'0 0.1
2018-Oct-10 11:30N 43°22' E 004°56'0 0.0
2018-Oct-10 11:03N 43°22' E 004°56'0 0.1
2018-Oct-10 11:00N 43°22' E 004°56'0 0.1
2018-Oct-10 10:30N 43°22' E 004°56'0 0.1
2018-Oct-10 10:03N 43°22' E 004°56'0 0.4
2018-Oct-10 09:57N 43°22' E 004°56'0 0.1
2018-Oct-10 09:30N 43°22' E 004°56'0 0.0
2018-Oct-10 09:03N 43°22' E 004°56'0 0.4
2018-Oct-10 09:00N 43°22' E 004°56'0 0.0
2018-Oct-10 08:27N 43°22' E 004°56'0 0.0
2018-Oct-10 08:03N 43°22' E 004°56'0 0.2
2018-Oct-10 08:00N 43°22' E 004°56'0 0.1
2018-Oct-10 07:30N 43°22' E 004°56'0 0.0
2018-Oct-10 06:54N 43°22' E 004°56'0 0.0
2018-Oct-10 06:30N 43°22' E 004°56'0 0.2
2018-Oct-10 06:03N 43°22' E 004°56'0 0.1
2018-Oct-10 06:00N 43°22' E 004°56'0 0.0
2018-Oct-10 05:27N 43°22' E 004°56'0 0.0
2018-Oct-10 05:03N 43°22' E 004°56'0 0.1
2018-Oct-10 05:01N 43°22' E 004°56'0 0.0
2018-Oct-10 04:30N 43°22' E 004°56'0 0.0
2018-Oct-10 04:03N 43°22' E 004°56'0 0.1
2018-Oct-10 04:00N 43°22' E 004°56'0 0.0
2018-Oct-10 03:30N 43°22' E 004°56'0 0.0
2018-Oct-10 03:03N 43°22' E 004°56'0 0.2
2018-Oct-10 03:00N 43°22' E 004°56'0 0.0
2018-Oct-10 02:30N 43°22' E 004°56'0 0.0
2018-Oct-10 02:03N 43°22' E 004°56'0 0.1
2018-Oct-10 02:00N 43°22' E 004°56'0 0.0
2018-Oct-10 01:30N 43°22' E 004°56'0 0.0
2018-Oct-10 01:03N 43°22' E 004°56'0 0.1
2018-Oct-10 01:00N 43°22' E 004°56'0 0.0
2018-Oct-10 00:28N 43°22' E 004°56'0 0.0
2018-Oct-10 00:01N 43°22' E 004°56'0 0.0
2018-Oct-09 23:58N 43°22' E 004°56'0 0.0
2018-Oct-09 23:28N 43°22' E 004°56'0 0.0
2018-Oct-09 23:01N 43°22' E 004°56'0 0.1
2018-Oct-09 22:58N 43°22' E 004°56'0 0.0
2018-Oct-09 22:25N 43°22' E 004°56'0 0.0
2018-Oct-09 22:01N 43°22' E 004°56'0 0.1
2018-Oct-09 21:58N 43°22' E 004°56'0 0.0
2018-Oct-09 21:25N 43°22' E 004°56'0 0.0
2018-Oct-09 21:01N 43°22' E 004°56'0 0.0
2018-Oct-09 20:58N 43°22' E 004°56'0 0.0
2018-Oct-09 20:28N 43°22' E 004°56'0 0.0
2018-Oct-09 20:01N 43°22' E 004°56'0 0.0
2018-Oct-09 19:55N 43°22' E 004°56'0 0.0
2018-Oct-09 19:28N 43°22' E 004°56'0 0.0
2018-Oct-09 19:01N 43°22' E 004°56'0 0.1
2018-Oct-09 18:58N 43°22' E 004°56'0 0.0
2018-Oct-09 18:28N 43°22' E 004°56'0 0.1
2018-Oct-09 18:01N 43°22' E 004°56'0 0.1
2018-Oct-09 17:58N 43°22' E 004°56'0 0.0
2018-Oct-09 17:25N 43°22' E 004°56'0 0.0
2018-Oct-09 17:01N 43°22' E 004°56'0 0.1
2018-Oct-09 16:55N 43°22' E 004°56'0 0.0
2018-Oct-09 16:28N 43°22' E 004°56'0 0.0
2018-Oct-09 16:01N 43°22' E 004°56'0 0.1
2018-Oct-09 15:58N 43°22' E 004°56'0 0.0
2018-Oct-09 15:28N 43°22' E 004°56'0 0.0
2018-Oct-09 15:01N 43°22' E 004°56'0 0.1
2018-Oct-09 14:58N 43°22' E 004°56'0 0.0
2018-Oct-09 13:55N 43°22' E 004°56'0 0.0
2018-Oct-09 13:25N 43°22' E 004°56'0 0.0
2018-Oct-09 13:01N 43°22' E 004°56'0 0.0
2018-Oct-09 12:58N 43°22' E 004°56'0 0.0
2018-Oct-09 12:28N 43°22' E 004°56'0 0.0
2018-Oct-09 12:01N 43°22' E 004°56'0 0.1
2018-Oct-09 11:58N 43°22' E 004°56'0 0.0
2018-Oct-09 11:28N 43°22' E 004°56'0 0.1
2018-Oct-09 11:01N 43°22' E 004°56'0 0.0
2018-Oct-09 10:58N 43°22' E 004°56'0 0.0
2018-Oct-09 10:25N 43°22' E 004°56'0 0.0
2018-Oct-09 10:01N 43°22' E 004°56'0 0.0
2018-Oct-09 09:58N 43°22' E 004°56'0 0.0
2018-Oct-09 09:25N 43°22' E 004°56'0 0.0
2018-Oct-09 08:58N 43°22' E 004°56'0 0.0
2018-Oct-09 08:28N 43°22' E 004°56'0 0.0
2018-Oct-09 08:01N 43°22' E 004°56'0 0.1
2018-Oct-09 07:58N 43°22' E 004°56'0 0.0
2018-Oct-09 07:28N 43°22' E 004°56'0 0.0
2018-Oct-09 07:01N 43°22' E 004°56'0 0.1
2018-Oct-09 06:58N 43°22' E 004°56'0 0.0
2018-Oct-09 06:19N 43°22' E 004°56'0 0.0
2018-Oct-09 06:01N 43°22' E 004°56'0 0.0
2018-Oct-09 05:58N 43°22' E 004°56'0 0.0
2018-Oct-09 05:28N 43°22' E 004°56'0 0.0
2018-Oct-09 05:01N 43°22' E 004°56'0 0.1
2018-Oct-09 04:55N 43°22' E 004°56'0 0.1
2018-Oct-09 04:28N 43°22' E 004°56'0 0.0
2018-Oct-09 04:01N 43°22' E 004°56'0 0.1
2018-Oct-09 03:58N 43°22' E 004°56'0 0.1
2018-Oct-09 03:28N 43°22' E 004°56'0 0.1
2018-Oct-09 03:01N 43°22' E 004°56'0 0.1
2018-Oct-09 02:55N 43°22' E 004°56'0 0.1
2018-Oct-09 02:28N 43°22' E 004°56'0 0.0
2018-Oct-09 02:01N 43°22' E 004°56'0 0.0
2018-Oct-09 01:58N 43°22' E 004°56'0 0.0
2018-Oct-09 01:25N 43°22' E 004°56'0 0.0
2018-Oct-09 01:01N 43°22' E 004°56'0 0.1
2018-Oct-09 00:55N 43°22' E 004°56'0 0.0
2018-Oct-09 00:25N 43°22' E 004°56'0 0.0
2018-Oct-09 00:01N 43°22' E 004°56'0 0.0
2018-Oct-08 23:58N 43°22' E 004°56'0 0.0
2018-Oct-08 23:28N 43°22' E 004°56'0 0.0
2018-Oct-08 23:01N 43°22' E 004°56'0 0.1
2018-Oct-08 22:58N 43°22' E 004°56'0 0.0
2018-Oct-08 22:25N 43°22' E 004°56'0 0.0
2018-Oct-08 22:01N 43°22' E 004°56'0 0.0
2018-Oct-08 21:58N 43°22' E 004°56'0 0.0
2018-Oct-08 21:28N 43°22' E 004°56'0 0.0
2018-Oct-08 21:01N 43°22' E 004°56'0 0.1
2018-Oct-08 20:58N 43°22' E 004°56'0 0.0
2018-Oct-08 20:28N 43°22' E 004°56'0 0.0
2018-Oct-08 20:01N 43°22' E 004°56'0 0.1
2018-Oct-08 19:58N 43°22' E 004°56'0 0.0
2018-Oct-08 19:28N 43°22' E 004°56'0 0.0
2018-Oct-08 18:58N 43°22' E 004°56'0 0.0
2018-Oct-08 18:28N 43°22' E 004°56'0 0.0
2018-Oct-08 17:58N 43°22' E 004°56'0 0.0
2018-Oct-08 17:28N 43°22' E 004°56'0 0.0
2018-Oct-08 16:58N 43°22' E 004°56'0 0.0
2018-Oct-08 16:28N 43°22' E 004°56'0 0.1
2018-Oct-08 16:01N 43°22' E 004°56'0 0.2
2018-Oct-08 15:58N 43°22' E 004°56'0 0.1
2018-Oct-08 15:28N 43°22' E 004°56'0 0.0
2018-Oct-08 14:58N 43°22' E 004°56'0 0.1
2018-Oct-08 14:28N 43°22' E 004°56'0 0.1
2018-Oct-08 13:58N 43°22' E 004°56'0 0.0
2018-Oct-08 13:28N 43°22' E 004°56'0 0.0
2018-Oct-08 13:01N 43°22' E 004°56'0 0.1
2018-Oct-08 12:58N 43°22' E 004°56'0 0.1
2018-Oct-08 12:28N 43°22' E 004°56'0 0.0
2018-Oct-08 12:01N 43°22' E 004°56'0 0.0
2018-Oct-08 11:58N 43°22' E 004°56'0 0.0
2018-Oct-08 11:28N 43°22' E 004°56'0 0.0
2018-Oct-08 11:01N 43°22' E 004°56'0 0.0
2018-Oct-08 10:58N 43°22' E 004°56'0 0.1
2018-Oct-08 10:28N 43°22' E 004°56'0 0.1
2018-Oct-08 10:01N 43°22' E 004°56'0 0.1
2018-Oct-08 09:58N 43°22' E 004°56'0 0.0
2018-Oct-08 09:28N 43°22' E 004°56'0 0.0
2018-Oct-08 09:01N 43°22' E 004°56'0 0.0
2018-Oct-08 08:49N 43°22' E 004°56'0 0.0
2018-Oct-08 08:25N 43°22' E 004°56'0 0.0
2018-Oct-08 08:01N 43°22' E 004°56'0 0.1
2018-Oct-08 07:58N 43°22' E 004°56'0 0.0
2018-Oct-08 07:28N 43°22' E 004°56'0 0.1
2018-Oct-08 07:01N 43°22' E 004°56'0 0.1
2018-Oct-08 06:58N 43°22' E 004°56'0 0.0
2018-Oct-08 06:28N 43°22' E 004°56'0 0.0
2018-Oct-08 05:58N 43°22' E 004°56'0 0.0
2018-Oct-08 05:28N 43°22' E 004°56'0 0.1
2018-Oct-08 05:01N 43°22' E 004°56'0 0.1
2018-Oct-08 04:55N 43°22' E 004°56'0 0.0
2018-Oct-08 04:28N 43°22' E 004°56'0 0.1
2018-Oct-08 04:01N 43°22' E 004°56'0 0.1
2018-Oct-08 03:58N 43°22' E 004°56'0 0.1
2018-Oct-08 03:28N 43°22' E 004°56'0 0.0
2018-Oct-08 03:01N 43°21' E 004°56'0 0.1
2018-Oct-08 02:58N 43°21' E 004°56'0 0.0
2018-Oct-08 02:28N 43°21' E 004°56'0 0.0
2018-Oct-08 02:01N 43°21' E 004°56'0 0.0
2018-Oct-08 01:58N 43°21' E 004°56'0 0.0
2018-Oct-08 01:28N 43°21' E 004°56'0 0.0
2018-Oct-08 01:01N 43°21' E 004°56'0 0.1
2018-Oct-08 00:58N 43°21' E 004°56'0 0.0
2018-Oct-08 00:28N 43°21' E 004°56'0 0.0
2018-Oct-08 00:01N 43°21' E 004°56'0 0.0
2018-Oct-07 23:58N 43°21' E 004°56'0 0.0
2018-Oct-07 23:25N 43°21' E 004°56'0 0.0
2018-Oct-07 22:58N 43°21' E 004°56'0 0.0
2018-Oct-07 22:25N 43°21' E 004°56'0 0.1
2018-Oct-07 22:01N 43°21' E 004°56'0 0.1
2018-Oct-07 21:55N 43°21' E 004°56'0 0.0
2018-Oct-07 21:25N 43°21' E 004°56'0 0.1
2018-Oct-07 20:55N 43°21' E 004°56'0 0.1
2018-Oct-07 20:25N 43°22' E 004°57'0 0.1
2018-Oct-07 20:01N 43°22' E 004°57'0 0.0
2018-Oct-07 19:58N 43°22' E 004°57'0 0.1
2018-Oct-07 19:28N 43°22' E 004°57'0 0.0
2018-Oct-07 19:01N 43°22' E 004°57'0 0.0
2018-Oct-07 18:58N 43°22' E 004°57'0 0.0
2018-Oct-07 18:28N 43°22' E 004°57'0 0.1
2018-Oct-07 18:01N 43°22' E 004°57'0 0.0
2018-Oct-07 17:58N 43°22' E 004°57'0 0.0
2018-Oct-07 17:28N 43°22' E 004°57'0 0.0
2018-Oct-07 17:01N 43°22' E 004°57'0 0.1
2018-Oct-07 16:58N 43°22' E 004°57'0 0.1
2018-Oct-07 16:28N 43°22' E 004°57'0 0.1
2018-Oct-07 16:01N 43°22' E 004°57'0 0.0
2018-Oct-07 15:55N 43°22' E 004°57'0 0.1
2018-Oct-07 15:25N 43°22' E 004°57'0 0.0
2018-Oct-07 15:01N 43°22' E 004°57'0 0.0
2018-Oct-07 14:58N 43°22' E 004°57'0 0.0
2018-Oct-07 14:28N 43°22' E 004°57'0 0.0
2018-Oct-07 13:58N 43°22' E 004°57'0 0.0
2018-Oct-07 13:28N 43°22' E 004°57'0 0.0
2018-Oct-07 13:01N 43°22' E 004°57'0 0.1
2018-Oct-07 12:58N 43°22' E 004°57'0 0.0
2018-Oct-07 12:28N 43°22' E 004°57'0 0.0
2018-Oct-07 12:01N 43°22' E 004°57'0 0.1
2018-Oct-07 11:58N 43°22' E 004°57'0 0.0
2018-Oct-07 11:28N 43°22' E 004°57'0 0.0
2018-Oct-07 11:01N 43°22' E 004°57'0 0.1
2018-Oct-07 10:58N 43°22' E 004°57'0 0.0
2018-Oct-07 10:22N 43°22' E 004°57'0 0.0
2018-Oct-07 10:01N 43°22' E 004°57'0 0.1
2018-Oct-07 09:58N 43°22' E 004°57'0 0.0
2018-Oct-07 09:25N 43°22' E 004°57'0 0.1
2018-Oct-07 09:01N 43°22' E 004°57'0 0.1
2018-Oct-07 08:55N 43°22' E 004°57'0 0.1
2018-Oct-07 08:30N 43°22' E 004°57'0 0.1
2018-Oct-07 08:03N 43°22' E 004°57'0 0.0
2018-Oct-07 08:00N 43°22' E 004°57'0 0.0
2018-Oct-07 07:30N 43°22' E 004°57'3 1.0
2018-Oct-07 04:21N 43°19' E 004°59'2 4.6
2018-Oct-07 03:59N 43°18' E 004°60'2 4.1
2018-Oct-07 03:30N 43°16' E 005°01'2 4.4
2018-Oct-07 03:01N 43°14' E 005°02'0 6.8
2018-Oct-07 03:00N 43°14' E 005°02'510.5
2018-Oct-07 02:30N 43°09' E 005°04'510.9
2018-Oct-07 02:01N 43°04' E 005°06'  

Dump ship's entire track history